Terminal Aerodrome Forecast
Issued by NWS Nashville, TN

Home | Current Version | Previous Version | Text Only | Print | Product List | Glossary On
Versions: 1 2 3 4 5 6 7 8 9 10 11 12 13 14 15 16 17
000
FTUS44 KOHX 282300
TAFCSV
TAF
KCSV 282333Z 2900/2924 34003KT 3SM -RA BR OVC002
      TEMPO 2900/2904 1SM BR
     FM290400 36003KT 2SM -SHRA BR OVC002
     FM290900 36004KT 1SM BR OVC002
      TEMPO 2909/2913 -SHRA
     FM291300 36004KT 3SM BR VCSH OVC006
      TEMPO 2913/2917 -DZ
     FM291700 35005KT P6SM OVC020=

USA.gov is the U.S. government's official web portal to all federal, state and local government web resources and services.